createdAt,value
2023-01-13T00:01:27.827Z,99865.63
2023-01-13T00:03:57.005Z,99875.19
2023-01-13T00:06:26.939Z,99872.59
2023-01-13T00:08:57.827Z,99872.59
2023-01-13T00:11:27.737Z,99872.59
2023-01-13T00:13:57.147Z,99876.03
2023-01-13T00:16:25.984Z,99862.97
2023-01-13T00:18:54.595Z,99865.56
2023-01-13T00:21:24.999Z,99875.16
2023-01-13T00:23:55.122Z,99860.34
2023-01-13T00:26:27.063Z,99858.59
2023-01-13T00:28:58.935Z,99866.47
2023-01-13T00:31:29.973Z,99868.22
2023-01-13T00:34:00.160Z,99867.34
2023-01-13T00:36:30.772Z,99870.84
2023-01-13T00:39:00.225Z,99874.34
2023-01-13T00:41:50.211Z,99872.59
2023-01-13T00:44:18.239Z,99876.94
2023-01-13T00:46:46.886Z,99876.97
2023-01-13T00:49:16.110Z,99888.31
2023-01-13T00:51:44.574Z,99892.69
2023-01-13T00:54:13.365Z,99897.00
2023-01-13T00:56:43.285Z,99889.16
2023-01-13T00:59:13.591Z,99887.41
2023-01-13T01:01:42.494Z,99881.31
2023-01-13T01:04:12.204Z,99889.13
2023-01-13T01:06:40.988Z,99886.50
2023-01-13T01:09:14.072Z,99880.38
2023-01-13T01:11:44.853Z,99883.88
2023-01-13T01:14:15.423Z,99879.50
2023-01-13T01:16:43.975Z,99876.88
2023-01-13T01:19:12.888Z,99881.22
2023-01-13T01:21:41.901Z,99876.88
2023-01-13T01:24:11.408Z,99873.38
2023-01-13T01:26:41.904Z,99876.84
2023-01-13T01:29:15.210Z,99872.47
2023-01-13T01:31:44.987Z,99871.66
2023-01-13T01:34:13.928Z,99871.59
2023-01-13T01:36:42.699Z,99875.97
2023-01-13T01:39:12.007Z,99869.00
2023-01-13T01:42:00.451Z,99872.50
2023-01-13T01:44:53.804Z,99879.38
2023-01-13T01:47:23.752Z,99877.69
2023-01-13T01:49:52.980Z,99875.94
2023-01-13T01:52:27.075Z,99869.00
2023-01-13T01:55:00.873Z,99873.31
2023-01-13T01:57:33.847Z,99869.84
2023-01-13T02:00:05.426Z,99862.88
2023-01-13T02:02:41.587Z,99862.94
2023-01-13T02:05:10.848Z,99856.81
2023-01-13T02:07:42.016Z,99857.66
2023-01-13T02:10:13.601Z,99850.72
2023-01-13T02:12:45.399Z,99857.72
2023-01-13T02:15:18.999Z,99855.16
2023-01-13T02:18:20.509Z,99857.78
2023-01-13T02:21:13.748Z,99863.84
2023-01-13T02:24:47.805Z,99870.00
2023-01-13T02:27:41.900Z,99866.50
2023-01-13T02:30:38.979Z,99865.66
2023-01-13T02:33:20.461Z,99865.66
2023-01-13T02:35:53.475Z,99865.66
2023-01-13T02:38:28.815Z,99866.50
2023-01-13T02:41:21.841Z,99860.38
2023-01-13T02:44:08.345Z,99865.59
2023-01-13T02:46:45.648Z,99864.69
2023-01-13T02:49:21.298Z,99869.94
2023-01-13T02:51:52.539Z,99863.88
2023-01-13T02:54:25.699Z,99876.06
2023-01-13T02:56:56.922Z,99870.84
2023-01-13T02:59:27.945Z,99870.84
2023-01-13T03:01:58.567Z,99880.41
2023-01-13T03:04:51.527Z,99865.47
2023-01-13T03:07:55.748Z,99871.59
2023-01-13T03:10:39.083Z,99875.09
2023-01-13T03:13:18.614Z,99873.38
2023-01-13T03:16:01.427Z,99872.47
2023-01-13T03:18:41.829Z,99868.97
2023-01-13T03:21:21.039Z,99869.81
2023-01-13T03:23:54.111Z,99875.13
2023-01-13T03:26:32.042Z,99869.00
2023-01-13T03:29:07.873Z,99870.72
2023-01-13T03:31:44.498Z,99866.41
2023-01-13T03:34:18.478Z,99863.78
2023-01-13T03:36:51.449Z,99854.19
2023-01-13T03:39:28.262Z,99843.69
2023-01-13T03:42:01.613Z,99849.78
2023-01-13T03:44:34.090Z,99848.09
2023-01-13T03:47:11.400Z,99849.00
2023-01-13T03:49:48.293Z,99851.59
2023-01-13T03:52:24.250Z,99848.13
2023-01-13T03:54:56.781Z,99847.28
2023-01-13T03:57:30.637Z,99838.59
2023-01-13T04:00:04.071Z,99833.38
2023-01-13T04:02:54.960Z,99824.63
2023-01-13T04:05:26.227Z,99832.53
2023-01-13T04:08:02.220Z,99836.00
2023-01-13T04:10:36.725Z,99830.78
2023-01-13T04:13:09.276Z,99840.31
2023-01-13T04:15:40.325Z,99838.63
2023-01-13T04:18:15.835Z,99829.88
2023-01-13T04:20:48.417Z,99829.91
2023-01-13T04:23:18.265Z,99828.19
2023-01-13T04:25:47.769Z,99829.94
2023-01-13T04:28:17.844Z,99828.22
2023-01-13T04:30:47.362Z,99822.09
2023-01-13T04:33:17.945Z,99827.34
2023-01-13T04:35:48.677Z,99825.59
2023-01-13T04:38:20.596Z,99828.19
2023-01-13T04:40:49.854Z,99819.50
2023-01-13T04:43:18.999Z,99814.31
2023-01-13T04:45:47.715Z,99818.63
2023-01-13T04:48:16.586Z,99814.31
2023-01-13T04:50:45.075Z,99821.25
2023-01-13T04:53:15.409Z,99811.66
2023-01-13T04:55:45.195Z,99809.91
2023-01-13T04:58:14.013Z,99814.25
2023-01-13T05:00:43.126Z,99808.13
2023-01-13T05:03:12.104Z,99813.34
2023-01-13T05:05:40.667Z,99812.44
2023-01-13T05:08:10.164Z,99817.66
2023-01-13T05:10:40.180Z,99823.75
2023-01-13T05:13:27.697Z,99817.63
2023-01-13T05:16:13.975Z,99823.75
2023-01-13T05:18:43.022Z,99826.41
2023-01-13T05:21:31.567Z,99822.91
2023-01-13T05:24:17.724Z,99828.97
2023-01-13T05:26:47.780Z,99833.31
2023-01-13T05:29:16.687Z,99826.34
2023-01-13T05:31:45.239Z,99812.34
2023-01-13T05:34:14.457Z,99815.84
2023-01-13T05:36:43.059Z,99814.94
2023-01-13T05:39:12.088Z,99814.97
2023-01-13T05:41:58.492Z,99815.84
2023-01-13T05:44:28.836Z,99822.78
2023-01-13T05:46:57.644Z,99829.78
2023-01-13T05:49:26.515Z,99831.53
2023-01-13T05:51:55.098Z,99836.81
2023-01-13T05:54:23.899Z,99842.06
2023-01-13T05:56:52.458Z,99840.31
2023-01-13T05:59:21.402Z,99837.69
2023-01-13T06:01:51.305Z,99841.16
2023-01-13T06:04:20.255Z,99849.03
2023-01-13T06:06:48.983Z,99848.13
2023-01-13T06:09:17.965Z,99854.28
2023-01-13T06:11:46.565Z,99859.47
2023-01-13T06:14:15.856Z,99858.59
2023-01-13T06:16:45.947Z,99863.81
2023-01-13T06:19:16.436Z,99858.56
2023-01-13T06:21:45.323Z,99857.66
2023-01-13T06:24:14.246Z,99856.81
2023-01-13T06:26:42.859Z,99857.63
2023-01-13T06:29:15.027Z,99857.63
2023-01-13T06:31:44.449Z,99862.88
2023-01-13T06:34:14.785Z,99860.28
2023-01-13T06:36:49.865Z,99860.34
2023-01-13T06:39:23.647Z,99857.72
2023-01-13T06:42:12.983Z,99858.56
2023-01-13T06:44:42.125Z,99866.41
2023-01-13T06:47:11.153Z,99867.28
2023-01-13T06:49:40.102Z,99866.44
2023-01-13T06:52:10.070Z,99864.69
2023-01-13T06:54:39.063Z,99863.81
2023-01-13T06:57:07.703Z,99867.31
2023-01-13T06:59:36.684Z,99870.75
2023-01-13T07:02:05.393Z,99869.03
2023-01-13T07:04:34.325Z,99864.63
2023-01-13T07:07:02.898Z,99866.34
2023-01-13T07:09:33.219Z,99853.22
2023-01-13T07:12:01.812Z,99855.00
2023-01-13T07:14:48.315Z,99851.53
2023-01-13T07:17:25.101Z,99855.88
2023-01-13T07:19:54.721Z,99848.09
2023-01-13T07:22:24.544Z,99855.91
2023-01-13T07:24:54.849Z,99853.25
2023-01-13T07:27:23.382Z,99857.66
2023-01-13T07:29:52.203Z,99856.81
2023-01-13T07:32:20.723Z,99847.22
2023-01-13T07:34:49.588Z,99860.34
2023-01-13T07:37:18.317Z,99849.00
2023-01-13T07:39:47.375Z,99853.34
2023-01-13T07:42:31.127Z,99849.88
2023-01-13T07:45:00.313Z,99854.25
2023-01-13T07:47:29.131Z,99850.78
2023-01-13T07:49:57.996Z,99855.19
2023-01-13T07:52:26.486Z,99850.81
2023-01-13T07:54:55.258Z,99850.84
2023-01-13T07:57:25.326Z,99847.38
2023-01-13T07:59:54.239Z,99848.22
2023-01-13T08:02:23.137Z,99848.28
2023-01-13T08:04:52.085Z,99850.88
2023-01-13T08:07:20.757Z,99852.66
2023-01-13T08:09:49.899Z,99862.19
2023-01-13T08:12:35.951Z,99860.47
2023-01-13T08:15:10.110Z,99858.72
2023-01-13T08:17:38.714Z,99863.94
2023-01-13T08:20:08.912Z,99866.56
2023-01-13T08:22:38.366Z,99864.81
2023-01-13T08:25:08.109Z,99862.22
2023-01-13T08:27:36.663Z,99872.69
2023-01-13T08:30:08.494Z,99867.44
2023-01-13T08:32:37.161Z,99873.53
2023-01-13T08:35:06.771Z,99870.06
2023-01-13T08:37:35.393Z,99874.41
2023-01-13T08:40:04.608Z,99874.41
2023-01-13T08:42:33.455Z,99870.03
2023-01-13T08:45:02.291Z,99866.59
2023-01-13T08:47:32.379Z,99864.84
2023-01-13T08:50:01.296Z,99863.09
2023-01-13T08:52:30.798Z,99864.84
2023-01-13T08:54:59.649Z,99862.25
2023-01-13T08:57:28.790Z,99863.13
2023-01-13T08:59:57.863Z,99862.25
2023-01-13T09:02:27.429Z,99856.13
2023-01-13T09:04:57.791Z,99855.25
2023-01-13T09:07:26.418Z,99853.50
2023-01-13T09:09:56.875Z,99859.59
2023-01-13T09:12:43.109Z,99858.75
2023-01-13T09:15:12.553Z,99861.34
2023-01-13T09:17:41.342Z,99859.59
2023-01-13T09:20:13.805Z,99863.09
2023-01-13T09:22:42.401Z,99871.78
2023-01-13T09:25:12.607Z,99859.59
2023-01-13T09:27:41.171Z,99845.69
2023-01-13T09:30:11.533Z,99850.03
2023-01-13T09:32:40.199Z,99847.44
2023-01-13T09:35:10.326Z,99836.09
2023-01-13T09:37:41.258Z,99842.19
2023-01-13T09:40:32.169Z,99830.88
2023-01-13T09:43:24.389Z,99830.84
2023-01-13T09:46:01.619Z,99836.94
2023-01-13T09:48:33.664Z,99837.78
2023-01-13T09:51:14.701Z,99837.78
2023-01-13T09:53:51.507Z,99834.31
2023-01-13T09:56:20.319Z,99829.09
2023-01-13T09:58:49.337Z,99827.31
2023-01-13T10:01:29.452Z,99829.94
2023-01-13T10:04:03.758Z,99821.16
2023-01-13T10:06:38.804Z,99811.53
2023-01-13T10:09:07.618Z,99801.06
2023-01-13T10:12:01.438Z,99802.78
2023-01-13T10:14:36.132Z,99796.69
2023-01-13T10:17:13.350Z,99801.00
2023-01-13T10:19:45.675Z,99797.56
2023-01-13T10:22:35.861Z,99789.63
2023-01-13T10:25:18.463Z,99793.16
2023-01-13T10:27:50.229Z,99787.91
2023-01-13T10:30:22.444Z,99783.47
2023-01-13T10:32:55.979Z,99772.91
2023-01-13T10:35:54.495Z,99773.63
2023-01-13T10:38:27.786Z,99765.81
2023-01-13T10:40:58.142Z,99769.22
2023-01-13T10:43:28.044Z,99763.94
2023-01-13T10:46:03.277Z,99757.75
2023-01-13T10:48:41.132Z,99757.72
2023-01-13T10:51:21.142Z,99756.84
2023-01-13T10:53:55.997Z,99751.63
2023-01-13T10:56:27.302Z,99749.84
2023-01-13T10:59:14.123Z,99741.06
2023-01-13T11:01:44.490Z,99741.06
2023-01-13T11:04:29.620Z,99733.72
2023-01-13T11:06:59.055Z,99742.41
2023-01-13T11:09:31.702Z,99732.66
2023-01-13T11:12:03.095Z,99726.63
2023-01-13T11:14:42.590Z,99725.56
2023-01-13T11:17:23.190Z,99709.06
2023-01-13T11:19:58.613Z,99707.91
2023-01-13T11:22:33.328Z,99713.91
2023-01-13T11:25:05.927Z,99710.56
2023-01-13T11:27:43.724Z,99712.13
2023-01-13T11:30:23.253Z,99709.25
2023-01-13T11:33:26.628Z,99703.38
2023-01-13T11:36:04.533Z,99698.78
2023-01-13T11:38:39.125Z,99696.22
2023-01-13T11:41:19.082Z,99697.19
2023-01-13T11:43:55.285Z,99690.97
2023-01-13T11:46:28.684Z,99688.28
2023-01-13T11:48:58.007Z,99679.53
2023-01-13T11:51:35.660Z,99677.44
2023-01-13T11:54:46.999Z,99670.34
2023-01-13T11:57:40.644Z,99667.81
2023-01-13T12:00:28.133Z,99667.78
2023-01-13T12:03:11.710Z,99667.09
2023-01-13T12:05:44.419Z,99666.56
2023-01-13T12:08:19.837Z,99668.94
2023-01-13T12:11:02.653Z,99669.91
2023-01-13T12:13:45.796Z,99665.38
2023-01-13T12:16:20.270Z,99658.56
2023-01-13T12:19:07.657Z,99661.06
2023-01-13T12:21:40.053Z,99659.66
2023-01-13T12:24:18.306Z,99653.47
2023-01-13T12:26:55.636Z,99652.56
2023-01-13T12:29:32.075Z,99657.72
2023-01-13T12:32:03.171Z,99652.59
2023-01-13T12:34:41.102Z,99645.69
2023-01-13T12:37:18.228Z,99644.00
2023-01-13T12:40:00.721Z,99639.59
2023-01-13T12:42:56.480Z,99645.84
2023-01-13T12:45:31.319Z,99642.34
2023-01-13T12:48:01.069Z,99653.75
2023-01-13T12:50:42.404Z,99646.88
2023-01-13T12:53:34.698Z,99640.81
2023-01-13T12:56:42.222Z,99636.06
2023-01-13T12:59:49.037Z,99631.03
2023-01-13T13:03:07.451Z,99618.88
2023-01-13T13:05:59.447Z,99628.41
2023-01-13T13:08:45.593Z,99634.50
2023-01-13T13:11:41.677Z,99633.91
2023-01-13T13:14:13.847Z,99633.25
2023-01-13T13:16:52.293Z,99634.06
2023-01-13T13:19:50.970Z,99633.97
2023-01-13T13:22:40.130Z,99632.09
2023-01-13T13:25:28.349Z,99623.25
2023-01-13T13:28:17.544Z,99623.13
2023-01-13T13:30:57.452Z,99623.75
2023-01-13T13:33:48.969Z,99623.03
2023-01-13T13:36:40.538Z,99620.38
2023-01-13T13:39:40.002Z,99617.06
2023-01-13T13:42:32.444Z,99622.41
2023-01-13T13:45:21.249Z,99619.69
2023-01-13T13:47:50.549Z,99618.59
2023-01-13T13:50:21.627Z,99619.41
2023-01-13T13:52:57.634Z,99627.22
2023-01-13T13:55:27.973Z,99630.78
2023-01-13T13:57:58.562Z,99625.38
2023-01-13T14:00:30.430Z,99623.66
2023-01-13T14:03:01.649Z,99633.25
2023-01-13T14:05:32.757Z,99629.69
2023-01-13T14:08:05.427Z,99629.69
2023-01-13T14:10:36.427Z,99629.94
2023-01-13T14:13:15.621Z,99628.00
2023-01-13T14:15:45.415Z,99631.09
2023-01-13T14:18:17.913Z,99619.59
2023-01-13T14:20:54.194Z,99623.16
2023-01-13T14:23:28.634Z,99623.38
2023-01-13T14:26:04.711Z,99627.59
2023-01-13T14:28:38.022Z,99629.53
2023-01-13T14:31:08.494Z,99627.06
2023-01-13T14:33:40.926Z,99628.66
2023-01-13T14:36:16.488Z,99623.47
2023-01-13T14:38:48.468Z,99619.06
2023-01-13T14:41:25.240Z,99619.84
2023-01-13T14:43:59.324Z,99613.81
2023-01-13T14:46:38.311Z,99624.22
2023-01-13T14:49:16.088Z,99616.59
2023-01-13T14:51:44.883Z,99612.22
2023-01-13T14:54:46.110Z,99610.38
2023-01-13T14:57:17.692Z,99607.00
2023-01-13T14:59:51.931Z,99603.47
2023-01-13T15:02:40.625Z,99604.22
2023-01-13T15:05:31.991Z,99608.59
2023-01-13T15:08:03.545Z,99603.66
2023-01-13T15:10:38.115Z,99602.78
2023-01-13T15:13:08.294Z,99598.66
2023-01-13T15:15:39.226Z,99607.47
2023-01-13T15:18:14.266Z,99604.06
2023-01-13T15:20:43.716Z,99606.81
2023-01-13T15:23:12.976Z,99603.53
2023-01-13T15:25:45.533Z,99606.09
2023-01-13T15:28:19.749Z,99604.41
2023-01-13T15:30:49.627Z,99609.78
2023-01-13T15:33:18.721Z,99614.16
2023-01-13T15:35:50.262Z,99605.50
2023-01-13T15:38:21.508Z,99613.38
2023-01-13T15:40:53.544Z,99612.41
2023-01-13T15:43:41.585Z,99612.56
2023-01-13T15:46:32.158Z,99609.09
2023-01-13T15:49:08.807Z,99610.00
2023-01-13T15:51:38.930Z,99610.06
2023-01-13T15:54:08.224Z,99613.66
2023-01-13T15:56:42.092Z,99608.41
2023-01-13T15:59:18.611Z,99613.66
2023-01-13T16:01:47.713Z,99618.13
2023-01-13T16:04:16.739Z,99611.19
2023-01-13T16:06:47.611Z,99599.97
2023-01-13T16:09:17.760Z,99604.41
2023-01-13T16:11:48.095Z,99609.59
2023-01-13T16:14:17.027Z,99614.78
2023-01-13T16:16:46.137Z,99608.66
2023-01-13T16:19:14.730Z,99606.03
2023-01-13T16:21:45.373Z,99603.53
2023-01-13T16:24:14.033Z,99604.44
2023-01-13T16:26:42.993Z,99602.69
2023-01-13T16:29:13.666Z,99601.84
2023-01-13T16:31:42.663Z,99601.84
2023-01-13T16:34:11.219Z,99603.59
2023-01-13T16:36:40.203Z,99601.00
2023-01-13T16:39:21.456Z,99594.84
2023-01-13T16:41:50.451Z,99598.34
2023-01-13T16:44:20.549Z,99597.53
2023-01-13T16:46:50.028Z,99591.44
2023-01-13T16:49:18.801Z,99594.13
2023-01-13T16:51:47.760Z,99593.31
2023-01-13T16:54:16.326Z,99597.66
2023-01-13T16:56:45.425Z,99601.06
2023-01-13T16:59:15.291Z,99603.72
2023-01-13T17:01:45.981Z,99598.50
2023-01-13T17:04:17.699Z,99600.22
2023-01-13T17:06:54.328Z,99607.16
2023-01-13T17:09:25.048Z,99595.84
2023-01-13T17:11:54.077Z,99592.34
2023-01-13T17:14:23.633Z,99589.78
2023-01-13T17:16:58.449Z,99589.81
2023-01-13T17:19:27.352Z,99577.56
2023-01-13T17:21:56.375Z,99583.69
2023-01-13T17:24:25.958Z,99578.47
2023-01-13T17:26:54.844Z,99568.94
2023-01-13T17:29:25.865Z,99564.56
2023-01-13T17:31:56.472Z,99567.16
2023-01-13T17:34:25.144Z,99560.19
2023-01-13T17:36:54.180Z,99557.56
2023-01-13T17:39:24.685Z,99566.28
2023-01-13T17:41:55.948Z,99563.69
2023-01-13T17:44:24.646Z,99555.81
2023-01-13T17:46:53.657Z,99559.31
2023-01-13T17:49:23.850Z,99565.38
2023-01-13T17:51:53.119Z,99560.06
2023-01-13T17:54:22.651Z,99558.31
2023-01-13T17:56:51.604Z,99562.59
2023-01-13T17:59:22.536Z,99566.97
2023-01-13T18:01:51.773Z,99569.56
2023-01-13T18:04:22.581Z,99573.91
2023-01-13T18:06:53.661Z,99579.22
2023-01-13T18:09:23.407Z,99582.72
2023-01-13T18:11:52.300Z,99587.09
2023-01-13T18:14:22.549Z,99581.03
2023-01-13T18:16:51.758Z,99584.50
2023-01-13T18:19:38.055Z,99583.69
2023-01-13T18:22:25.710Z,99572.34
2023-01-13T18:25:21.832Z,99563.72
2023-01-13T18:27:51.021Z,99563.69
2023-01-13T18:30:20.525Z,99561.97
2023-01-13T18:32:49.429Z,99560.22
2023-01-13T18:35:18.125Z,99555.88
2023-01-13T18:37:48.576Z,99552.44
2023-01-13T18:40:17.412Z,99558.50
2023-01-13T18:42:59.265Z,99557.63
2023-01-13T18:45:30.500Z,99553.28
2023-01-13T18:48:01.707Z,99553.28
2023-01-13T18:50:31.195Z,99552.44
2023-01-13T18:53:01.810Z,99554.19
2023-01-13T18:55:30.688Z,99550.75
2023-01-13T18:57:59.600Z,99552.47
2023-01-13T19:00:29.142Z,99562.91
2023-01-13T19:05:35.733Z,99566.41
2023-01-13T19:08:06.670Z,99562.06
2023-01-13T19:10:36.628Z,99567.25
2023-01-13T19:13:05.790Z,99568.13
2023-01-13T19:15:37.469Z,99564.63
2023-01-13T19:18:06.691Z,99571.59
2023-01-13T19:20:35.453Z,99568.09
2023-01-13T19:23:04.549Z,99572.47
2023-01-13T19:25:34.459Z,99586.34
2023-01-13T19:28:03.327Z,99575.06
2023-01-13T19:30:32.075Z,99572.47
2023-01-13T19:33:01.446Z,99579.44
2023-01-13T19:35:30.489Z,99578.53
2023-01-13T19:37:59.353Z,99586.38
2023-01-13T19:40:28.137Z,99583.75
2023-01-13T19:43:15.820Z,99587.28
2023-01-13T19:45:44.995Z,99591.66
2023-01-13T19:48:16.264Z,99594.25
2023-01-13T19:50:44.889Z,99600.31
2023-01-13T19:53:18.002Z,99609.81
2023-01-13T19:55:48.435Z,99601.19
2023-01-13T19:58:20.010Z,99601.19
2023-01-13T20:00:48.751Z,99608.16
2023-01-13T20:03:19.316Z,99616.84
2023-01-13T20:05:48.479Z,99611.63
2023-01-13T20:08:17.756Z,99619.47
2023-01-13T20:10:47.444Z,99631.63
2023-01-13T20:13:18.099Z,99627.28
2023-01-13T20:15:46.820Z,99620.31
2023-01-13T20:18:15.798Z,99623.81
2023-01-13T20:20:44.302Z,99616.84
2023-01-13T20:23:13.126Z,99630.75
2023-01-13T20:25:43.471Z,99621.19
2023-01-13T20:28:12.326Z,99615.97
2023-01-13T20:30:42.544Z,99606.41
2023-01-13T20:33:11.581Z,99605.53
2023-01-13T20:35:40.374Z,99607.28
2023-01-13T20:38:09.516Z,99602.91
2023-01-13T20:40:38.131Z,99603.81
2023-01-13T20:43:06.371Z,99608.16
2023-01-13T20:45:35.201Z,99609.03
2023-01-13T20:48:05.718Z,99606.41
2023-01-13T20:50:34.282Z,99608.16
2023-01-13T20:53:03.193Z,99607.28
2023-01-13T20:55:31.995Z,99608.16
2023-01-13T20:58:00.878Z,99609.00
2023-01-13T21:00:29.841Z,99616.84
2023-01-13T21:02:59.955Z,99595.09
2023-01-13T21:05:29.961Z,99605.47
2023-01-13T21:07:58.853Z,99599.38
2023-01-13T21:10:27.385Z,99600.19
2023-01-13T21:13:13.999Z,99597.50
2023-01-13T21:15:48.066Z,99599.31
2023-01-13T21:18:30.776Z,99607.16
2023-01-13T21:21:12.470Z,99604.47
2023-01-13T21:23:42.412Z,99603.63
2023-01-13T21:26:12.324Z,99604.50
2023-01-13T21:28:41.170Z,99603.59
2023-01-13T21:31:10.633Z,99597.50
2023-01-13T21:33:40.060Z,99595.78
2023-01-13T21:36:13.284Z,99593.09
2023-01-13T21:38:42.623Z,99594.84
2023-01-13T21:41:14.418Z,99595.69
2023-01-13T21:44:01.474Z,99600.00
2023-01-13T21:46:47.468Z,99603.47
2023-01-13T21:49:16.320Z,99605.09
2023-01-13T21:51:46.375Z,99613.81
2023-01-13T21:54:15.302Z,99608.72
2023-01-13T21:56:43.837Z,99613.97
2023-01-13T21:59:12.708Z,99607.06
2023-01-13T22:02:02.874Z,99608.81
2023-01-13T22:04:30.251Z,99613.19
2023-01-13T22:07:04.565Z,99610.59
2023-01-13T22:09:33.460Z,99616.72
2023-01-13T22:12:02.491Z,99627.16
2023-01-13T22:14:31.479Z,99617.59
2023-01-13T22:17:01.247Z,99615.84
2023-01-13T22:19:30.578Z,99615.91
2023-01-13T22:22:00.649Z,99614.16
2023-01-13T22:24:30.257Z,99615.00
2023-01-13T22:26:58.857Z,99606.31
2023-01-13T22:29:27.966Z,99607.22
2023-01-13T22:31:56.689Z,99609.84
2023-01-13T22:34:25.602Z,99609.78
2023-01-13T22:36:54.335Z,99618.53
2023-01-13T22:39:24.625Z,99622.06
2023-01-13T22:41:53.465Z,99610.75
2023-01-13T22:44:23.059Z,99608.13
2023-01-13T22:46:51.644Z,99606.41
2023-01-13T22:49:21.462Z,99606.41
2023-01-13T22:51:50.111Z,99605.53
2023-01-13T22:54:19.822Z,99606.44
2023-01-13T22:56:49.865Z,99600.34
2023-01-13T22:59:18.700Z,99600.34
2023-01-13T23:01:47.588Z,99595.09
2023-01-13T23:04:16.689Z,99593.38
2023-01-13T23:06:45.410Z,99592.47
2023-01-13T23:09:14.306Z,99593.31
2023-01-13T23:11:43.195Z,99592.41
2023-01-13T23:14:14.058Z,99596.81
2023-01-13T23:16:44.000Z,99597.66
2023-01-13T23:19:15.217Z,99599.34
2023-01-13T23:21:44.188Z,99588.88
2023-01-13T23:24:13.150Z,99585.47
2023-01-13T23:26:42.353Z,99586.31
2023-01-13T23:29:14.585Z,99571.50
2023-01-13T23:31:43.320Z,99574.13
2023-01-13T23:34:13.319Z,99574.09
2023-01-13T23:36:43.418Z,99568.91
2023-01-13T23:39:12.461Z,99574.03
2023-01-13T23:41:41.126Z,99574.91
2023-01-13T23:44:10.697Z,99572.38
2023-01-13T23:46:40.837Z,99574.94
2023-01-13T23:49:09.724Z,99562.78
2023-01-13T23:51:38.323Z,99559.25
2023-01-13T23:54:07.271Z,99561.91
2023-01-13T23:56:39.408Z,99559.19
2023-01-13T23:59:08.662Z,99562.69
